createdAt,value
2017-12-25T00:00:56.471Z,99413.13
2017-12-25T00:03:26.285Z,99402.74
2017-12-25T00:05:56.135Z,99412.05
2017-12-25T00:08:25.936Z,99402.86
2017-12-25T00:10:55.751Z,99404.79
2017-12-25T00:13:25.549Z,99401.27
2017-12-25T00:15:55.356Z,99404.13
2017-12-25T00:18:25.207Z,99399.22
2017-12-25T00:20:55.004Z,99401.91
2017-12-25T00:23:24.832Z,99398.86
2017-12-25T00:25:54.666Z,99399.13
2017-12-25T00:28:24.638Z,99400.52
2017-12-25T00:30:54.455Z,99400.20
2017-12-25T00:33:24.264Z,99391.39
2017-12-25T00:35:54.083Z,99388.93
2017-12-25T00:38:23.883Z,99385.76
2017-12-25T00:40:53.707Z,99381.88
2017-12-25T00:43:23.500Z,99390.70
2017-12-25T00:45:53.305Z,99385.84
2017-12-25T00:48:23.101Z,99387.95
2017-12-25T00:50:52.936Z,99381.82
2017-12-25T00:53:22.752Z,99380.52
2017-12-25T00:55:52.547Z,99383.89
2017-12-25T00:58:22.331Z,99379.98
2017-12-25T01:00:52.129Z,99384.04
2017-12-25T01:03:21.939Z,99384.19
2017-12-25T01:05:51.752Z,99383.98
2017-12-25T01:08:21.567Z,99387.89
2017-12-25T01:10:51.385Z,99383.95
2017-12-25T01:13:21.179Z,99383.86
2017-12-25T01:15:50.985Z,99387.95
2017-12-25T01:18:20.771Z,99390.20
2017-12-25T01:20:50.563Z,99394.33
2017-12-25T01:23:20.380Z,99395.90
2017-12-25T01:25:50.392Z,99400.73
2017-12-25T01:28:20.192Z,99395.52
2017-12-25T01:30:49.979Z,99398.63
2017-12-25T01:33:19.778Z,99389.20
2017-12-25T01:35:49.571Z,99386.73
2017-12-25T01:38:19.481Z,99390.44
2017-12-25T01:40:49.270Z,99392.42
2017-12-25T01:43:19.078Z,99382.64
2017-12-25T01:45:50.315Z,99393.41
2017-12-25T01:48:20.127Z,99392.18
2017-12-25T01:50:49.595Z,99391.80
2017-12-25T01:53:18.471Z,99389.11
2017-12-25T01:55:47.376Z,99384.45
2017-12-25T02:01:31.066Z,99377.86
2017-12-25T02:03:59.732Z,99380.44
2017-12-25T02:06:40.171Z,99381.16
2017-12-25T02:09:09.420Z,99381.09
2017-12-25T02:11:38.688Z,99378.16
2017-12-25T02:14:07.954Z,99374.16
2017-12-25T02:16:37.189Z,99365.09
2017-12-25T02:19:06.964Z,99368.36
2017-12-25T02:21:36.743Z,99370.43
2017-12-25T02:24:06.546Z,99360.86
2017-12-25T02:26:36.332Z,99361.39
2017-12-25T02:29:06.139Z,99362.70
2017-12-25T02:31:35.921Z,99361.25
2017-12-25T02:34:05.705Z,99357.53
2017-12-25T02:36:35.511Z,99353.20
2017-12-25T02:39:04.716Z,99355.70
2017-12-25T02:41:34.510Z,99354.46
2017-12-25T02:44:04.311Z,99357.51
2017-12-25T02:46:34.076Z,99354.06
2017-12-25T02:49:03.868Z,99357.76
2017-12-25T02:51:33.677Z,99356.98
2017-12-25T02:54:03.474Z,99353.37
2017-12-25T02:56:33.250Z,99357.84
2017-12-25T02:59:03.038Z,99355.88
2017-12-25T03:01:32.878Z,99354.63
2017-12-25T03:04:02.830Z,99360.82
2017-12-25T03:06:32.605Z,99356.20
2017-12-25T03:09:02.141Z,99355.45
2017-12-25T03:11:31.929Z,99351.98
2017-12-25T03:14:01.732Z,99350.97
2017-12-25T03:16:31.527Z,99348.26
2017-12-25T03:19:01.320Z,99344.80
2017-12-25T03:21:31.112Z,99352.67
2017-12-25T03:24:00.915Z,99343.61
2017-12-25T03:26:30.688Z,99343.08
2017-12-25T03:29:00.537Z,99345.67
2017-12-25T03:31:30.353Z,99339.31
2017-12-25T03:34:00.136Z,99338.10
2017-12-25T03:36:29.923Z,99336.53
2017-12-25T03:38:59.721Z,99340.27
2017-12-25T03:41:29.533Z,99345.75
2017-12-25T03:43:59.345Z,99340.83
2017-12-25T03:46:29.137Z,99339.58
2017-12-25T03:48:58.941Z,99348.73
2017-12-25T03:51:28.581Z,99344.30
2017-12-25T03:53:58.372Z,99340.63
2017-12-25T03:56:28.163Z,99343.11
2017-12-25T03:58:57.983Z,99345.72
2017-12-25T04:01:27.793Z,99345.39
2017-12-25T04:03:57.600Z,99352.15
2017-12-25T04:06:27.444Z,99344.77
2017-12-25T04:08:56.981Z,99348.42
2017-12-25T04:11:26.782Z,99344.95
2017-12-25T04:13:56.592Z,99344.13
2017-12-25T04:16:26.410Z,99344.16
2017-12-25T04:18:56.221Z,99347.77
2017-12-25T04:21:26.028Z,99345.98
2017-12-25T04:23:55.846Z,99345.19
2017-12-25T04:26:25.672Z,99343.41
2017-12-25T04:28:55.541Z,99336.95
2017-12-25T04:31:25.435Z,99336.53
2017-12-25T04:33:55.329Z,99335.41
2017-12-25T04:36:25.143Z,99330.13
2017-12-25T04:38:54.998Z,99334.14
2017-12-25T04:41:24.791Z,99329.98
2017-12-25T04:43:54.626Z,99330.70
2017-12-25T04:46:24.444Z,99324.27
2017-12-25T04:48:54.964Z,99324.75
2017-12-25T04:51:24.754Z,99326.34
2017-12-25T04:53:54.609Z,99324.84
2017-12-25T04:56:24.470Z,99320.66
2017-12-25T04:58:54.306Z,99323.00
2017-12-25T05:01:24.108Z,99320.13
2017-12-25T05:03:54.582Z,99318.67
2017-12-25T05:06:24.414Z,99312.10
2017-12-25T05:08:54.227Z,99314.77
2017-12-25T05:11:24.048Z,99313.41
2017-12-25T05:13:53.857Z,99312.84
2017-12-25T05:16:23.675Z,99317.38
2017-12-25T05:18:53.500Z,99314.83
2017-12-25T05:21:23.305Z,99315.53
2017-12-25T05:23:53.110Z,99319.36
2017-12-25T05:26:22.922Z,99317.64
2017-12-25T05:28:52.729Z,99314.56
2017-12-25T05:31:22.534Z,99315.45
2017-12-25T05:33:52.365Z,99318.27
2017-12-25T05:36:22.191Z,99310.41
2017-12-25T05:38:52.003Z,99311.12
2017-12-25T05:41:21.831Z,99311.06
2017-12-25T05:43:51.625Z,99309.29
2017-12-25T05:46:21.441Z,99305.67
2017-12-25T05:48:51.254Z,99301.34
2017-12-25T05:51:21.096Z,99307.89
2017-12-25T05:53:50.917Z,99308.25
2017-12-25T05:56:20.741Z,99312.28
2017-12-25T05:58:50.556Z,99305.22
2017-12-25T06:01:20.371Z,99312.53
2017-12-25T06:03:50.196Z,99308.81
2017-12-25T06:06:20.030Z,99309.46
2017-12-25T06:08:49.877Z,99312.75
2017-12-25T06:11:19.702Z,99311.21
2017-12-25T06:13:49.531Z,99311.78
2017-12-25T06:16:19.397Z,99309.14
2017-12-25T06:18:49.204Z,99305.08
2017-12-25T06:21:19.017Z,99307.63
2017-12-25T06:23:48.829Z,99307.84
2017-12-25T06:26:18.664Z,99307.16
2017-12-25T06:28:49.259Z,99303.03
2017-12-25T06:31:19.083Z,99302.27
2017-12-25T06:33:48.945Z,99297.44
2017-12-25T06:36:18.867Z,99292.16
2017-12-25T06:38:48.680Z,99292.78
2017-12-25T06:41:18.503Z,99295.95
2017-12-25T06:43:48.335Z,99296.70
2017-12-25T06:46:18.518Z,99298.74
2017-12-25T06:48:48.402Z,99291.96
2017-12-25T06:51:18.267Z,99288.73
2017-12-25T06:53:48.100Z,99289.06
2017-12-25T06:56:17.913Z,99283.70
2017-12-25T06:58:47.735Z,99280.53
2017-12-25T07:01:17.540Z,99284.59
2017-12-25T07:03:47.334Z,99287.46
2017-12-25T07:06:17.372Z,99284.11
2017-12-25T07:08:47.127Z,99280.65
2017-12-25T07:11:17.026Z,99282.55
2017-12-25T07:13:46.812Z,99286.48
2017-12-25T07:16:16.637Z,99286.16
2017-12-25T07:18:46.479Z,99287.58
2017-12-25T07:21:16.388Z,99285.36
2017-12-25T07:23:46.246Z,99288.23
2017-12-25T07:26:16.111Z,99282.92
2017-12-25T07:28:45.912Z,99280.46
2017-12-25T07:31:16.484Z,99284.14
2017-12-25T07:33:46.350Z,99280.88
2017-12-25T07:36:16.160Z,99278.81
2017-12-25T07:38:46.014Z,99279.31
2017-12-25T07:41:15.550Z,99276.41
2017-12-25T07:43:45.374Z,99277.30
2017-12-25T07:46:15.184Z,99278.25
2017-12-25T07:48:45.013Z,99272.30
2017-12-25T07:51:14.818Z,99277.77
2017-12-25T07:53:44.942Z,99274.12
2017-12-25T07:56:14.739Z,99279.87
2017-12-25T07:58:44.881Z,99274.48
2017-12-25T08:01:14.697Z,99276.44
2017-12-25T08:03:44.511Z,99278.02
2017-12-25T08:06:14.310Z,99281.66
2017-12-25T08:08:44.145Z,99283.11
2017-12-25T08:11:14.004Z,99282.16
2017-12-25T08:13:44.460Z,99285.17
2017-12-25T08:16:14.277Z,99278.84
2017-12-25T08:18:44.102Z,99277.11
2017-12-25T08:21:13.892Z,99277.77
2017-12-25T08:23:43.687Z,99279.28
2017-12-25T08:26:13.532Z,99278.41
2017-12-25T08:28:43.548Z,99277.44
2017-12-25T08:31:13.348Z,99278.10
2017-12-25T08:33:43.165Z,99278.63
2017-12-25T08:36:12.952Z,99276.83
2017-12-25T08:38:42.725Z,99274.45
2017-12-25T08:41:12.991Z,99273.15
2017-12-25T08:43:42.789Z,99272.21
2017-12-25T08:46:12.617Z,99271.41
2017-12-25T08:48:42.418Z,99264.54
2017-12-25T08:51:12.211Z,99269.40
2017-12-25T08:53:42.052Z,99270.08
2017-12-25T08:56:11.850Z,99268.49
2017-12-25T08:58:41.649Z,99273.05
2017-12-25T09:01:11.447Z,99272.13
2017-12-25T09:03:41.238Z,99274.94
2017-12-25T09:06:11.048Z,99280.49
2017-12-25T09:08:40.878Z,99281.09
2017-12-25T09:11:10.659Z,99283.19
2017-12-25T09:13:40.456Z,99279.62
2017-12-25T09:16:10.302Z,99277.47
2017-12-25T09:18:40.098Z,99281.86
2017-12-25T09:21:09.920Z,99279.47
2017-12-25T09:23:39.734Z,99280.73
2017-12-25T09:26:09.528Z,99272.30
2017-12-25T09:28:39.330Z,99274.83
2017-12-25T09:31:09.130Z,99273.86
2017-12-25T09:33:38.970Z,99270.50
2017-12-25T09:36:12.863Z,99272.08
2017-12-25T09:38:42.489Z,99266.66
2017-12-25T09:41:12.281Z,99262.27
2017-12-25T09:43:42.113Z,99254.76
2017-12-25T09:46:11.921Z,99258.02
2017-12-25T09:48:41.735Z,99255.37
2017-12-25T09:51:11.952Z,99250.62
2017-12-25T09:53:41.766Z,99245.55
2017-12-25T09:56:11.572Z,99241.22
2017-12-25T09:58:41.360Z,99242.97
2017-12-25T10:01:11.156Z,99234.86
2017-12-25T10:03:40.995Z,99232.85
2017-12-25T10:06:10.802Z,99226.13
2017-12-25T10:08:40.600Z,99219.77
2017-12-25T10:11:10.417Z,99220.23
2017-12-25T10:13:40.216Z,99218.59
2017-12-25T10:16:10.049Z,99212.53
2017-12-25T10:18:39.875Z,99205.50
2017-12-25T10:21:09.742Z,99204.31
2017-12-25T10:23:39.560Z,99202.44
2017-12-25T10:26:09.451Z,99204.48
2017-12-25T10:28:39.270Z,99197.45
2017-12-25T10:31:09.153Z,99201.52
2017-12-25T10:33:38.984Z,99203.88
2017-12-25T10:36:08.809Z,99194.22
2017-12-25T10:38:38.616Z,99188.33
2017-12-25T10:41:08.433Z,99183.52
2017-12-25T10:43:38.253Z,99179.18
2017-12-25T10:46:08.078Z,99183.88
2017-12-25T10:48:38.406Z,99190.12
2017-12-25T10:51:08.281Z,99182.97
2017-12-25T10:53:38.231Z,99176.41
2017-12-25T10:58:36.849Z,99168.00
2017-12-25T11:01:06.749Z,99165.89
2017-12-25T11:03:36.586Z,99155.91
2017-12-25T11:06:06.995Z,99150.84
2017-12-25T11:08:36.800Z,99150.24
2017-12-25T11:11:06.799Z,99149.25
2017-12-25T11:13:36.706Z,99145.74
2017-12-25T11:16:06.550Z,99145.17
2017-12-25T11:18:36.442Z,99140.89
2017-12-25T11:21:06.322Z,99133.24
2017-12-25T11:23:36.172Z,99128.12
2017-12-25T11:26:06.023Z,99127.50
2017-12-25T11:28:35.882Z,99121.62
2017-12-25T11:31:06.533Z,99121.48
2017-12-25T11:33:36.377Z,99121.31
2017-12-25T11:36:06.197Z,99113.48
2017-12-25T11:38:35.803Z,99118.43
2017-12-25T11:41:05.601Z,99101.95
2017-12-25T11:43:35.433Z,99100.25
2017-12-25T11:46:05.249Z,99095.98
2017-12-25T11:48:35.066Z,99097.85
2017-12-25T11:51:04.624Z,99088.44
2017-12-25T11:53:34.422Z,99086.29
2017-12-25T11:56:04.238Z,99084.17
2017-12-25T11:58:34.495Z,99077.42
2017-12-25T12:01:04.314Z,99072.25
2017-12-25T12:03:34.139Z,99066.91
2017-12-25T12:06:03.959Z,99066.84
2017-12-25T12:08:33.779Z,99061.03
2017-12-25T12:11:03.582Z,99061.03
2017-12-25T12:13:33.604Z,99048.72
2017-12-25T12:16:03.453Z,99041.64
2017-12-25T12:18:33.273Z,99043.08
2017-12-25T12:21:03.107Z,99040.30
2017-12-25T12:23:32.940Z,99035.09
2017-12-25T12:26:02.928Z,99033.60
2017-12-25T12:28:32.747Z,99026.27
2017-12-25T12:31:02.309Z,99018.02
2017-12-25T12:33:32.115Z,99018.73
2017-12-25T12:36:01.967Z,99016.80
2017-12-25T12:38:31.903Z,99016.73
2017-12-25T12:41:02.379Z,99015.45
2017-12-25T12:43:32.209Z,99002.11
2017-12-25T12:46:02.041Z,99001.95
2017-12-25T12:48:31.871Z,99012.38
2017-12-25T12:51:01.708Z,99011.03
2017-12-25T12:53:31.530Z,99004.91
2017-12-25T12:56:01.374Z,99000.18
2017-12-25T12:58:31.358Z,98998.31
2017-12-25T13:01:01.261Z,98996.44
2017-12-25T13:03:31.184Z,98982.77
2017-12-25T13:06:01.031Z,98980.97
2017-12-25T13:08:30.895Z,98979.86
2017-12-25T13:11:00.776Z,98978.41
2017-12-25T13:13:30.595Z,98969.09
2017-12-25T13:16:00.421Z,98966.98
2017-12-25T13:18:31.078Z,98972.41
2017-12-25T13:21:00.892Z,98970.38
2017-12-25T13:23:30.703Z,98965.90
2017-12-25T13:26:00.522Z,98973.84
2017-12-25T13:28:30.300Z,98969.70
2017-12-25T13:31:00.136Z,98974.66
2017-12-25T13:33:29.713Z,98966.98
2017-12-25T13:35:59.615Z,98967.94
2017-12-25T13:38:29.404Z,98956.79
2017-12-25T13:40:59.304Z,98959.39
2017-12-25T13:43:29.327Z,98949.81
2017-12-25T13:45:59.149Z,98950.39
2017-12-25T13:48:28.983Z,98947.42
2017-12-25T13:50:58.881Z,98943.61
2017-12-25T13:53:28.703Z,98941.99
2017-12-25T13:55:58.535Z,98938.48
2017-12-25T13:58:28.496Z,98932.43
2017-12-25T14:00:58.487Z,98935.29
2017-12-25T14:03:28.397Z,98934.76
2017-12-25T14:05:58.198Z,98938.32
2017-12-25T14:08:28.396Z,98930.93
2017-12-25T14:10:58.226Z,98929.73
2017-12-25T14:13:28.049Z,98931.32
2017-12-25T14:15:57.881Z,98927.07
2017-12-25T14:18:27.686Z,98932.17
2017-12-25T14:20:57.567Z,98925.55
2017-12-25T14:23:27.485Z,98926.13
2017-12-25T14:25:57.358Z,98924.83
2017-12-25T14:28:27.320Z,98925.58
2017-12-25T14:30:57.126Z,98917.04
2017-12-25T14:33:26.990Z,98918.23
2017-12-25T14:35:56.833Z,98917.22
2017-12-25T14:38:26.693Z,98917.00
2017-12-25T14:40:56.527Z,98912.61
2017-12-25T14:43:26.341Z,98914.66
2017-12-25T14:45:56.203Z,98915.14
2017-12-25T14:48:26.049Z,98907.28
2017-12-25T14:50:55.889Z,98907.16
2017-12-25T14:53:25.675Z,98909.26
2017-12-25T14:55:55.490Z,98906.84
2017-12-25T14:58:25.336Z,98913.97
2017-12-25T15:00:55.160Z,98908.31
2017-12-25T15:03:25.080Z,98902.27
2017-12-25T15:05:54.925Z,98901.34
2017-12-25T15:08:24.733Z,98898.73
2017-12-25T15:10:54.540Z,98896.15
2017-12-25T15:13:24.387Z,98891.99
2017-12-25T15:15:54.204Z,98895.16
2017-12-25T15:18:28.308Z,98888.13
2017-12-25T15:20:58.136Z,98881.52
2017-12-25T15:23:27.947Z,98885.25
2017-12-25T15:25:57.761Z,98884.05
2017-12-25T15:28:27.570Z,98874.81
2017-12-25T15:30:57.609Z,98872.36
2017-12-25T15:33:27.467Z,98865.94
2017-12-25T15:35:57.297Z,98864.77
2017-12-25T15:38:27.107Z,98859.42
2017-12-25T15:40:56.933Z,98857.69
2017-12-25T15:43:26.743Z,98850.26
2017-12-25T15:45:56.584Z,98850.69
2017-12-25T15:48:26.492Z,98843.78
2017-12-25T15:50:56.352Z,98839.34
2017-12-25T15:53:26.178Z,98843.02
2017-12-25T15:55:56.007Z,98845.64
2017-12-25T15:58:25.856Z,98842.72
2017-12-25T16:00:55.691Z,98847.94
2017-12-25T16:03:25.588Z,98846.23
2017-12-25T16:05:55.441Z,98845.83
2017-12-25T16:08:25.332Z,98848.78
2017-12-25T16:10:55.150Z,98843.68
2017-12-25T16:13:24.999Z,98842.39
2017-12-25T16:15:54.788Z,98850.28
2017-12-25T16:18:24.666Z,98842.07
2017-12-25T16:20:54.615Z,98843.16
2017-12-25T16:23:24.463Z,98839.20
2017-12-25T16:25:54.330Z,98835.41
2017-12-25T16:28:24.434Z,98842.37
2017-12-25T16:30:54.270Z,98837.91
2017-12-25T16:33:24.080Z,98841.47
2017-12-25T16:35:53.688Z,98839.02
2017-12-25T16:38:23.496Z,98833.59
2017-12-25T16:40:53.352Z,98833.23
2017-12-25T16:43:23.225Z,98832.39
2017-12-25T16:45:53.065Z,98828.27
2017-12-25T16:48:22.923Z,98829.88
2017-12-25T16:50:52.791Z,98829.85
2017-12-25T16:53:22.614Z,98830.13
2017-12-25T16:55:52.424Z,98827.94
2017-12-25T16:58:22.229Z,98824.74
2017-12-25T17:00:52.066Z,98825.35
2017-12-25T17:03:21.911Z,98825.84
2017-12-25T17:05:51.710Z,98821.90
2017-12-25T17:08:21.557Z,98821.11
2017-12-25T17:10:51.435Z,98820.06
2017-12-25T17:13:21.261Z,98824.16
2017-12-25T17:15:51.054Z,98823.91
2017-12-25T17:18:20.899Z,98822.89
2017-12-25T17:20:50.445Z,98817.36
2017-12-25T17:23:20.319Z,98813.98
2017-12-25T17:25:50.131Z,98811.62
2017-12-25T17:28:19.965Z,98809.73
2017-12-25T17:30:49.855Z,98807.02
2017-12-25T17:33:19.699Z,98799.61
2017-12-25T17:35:49.530Z,98803.19
2017-12-25T17:38:19.354Z,98795.25
2017-12-25T17:40:49.179Z,98790.58
2017-12-25T17:43:19.221Z,98791.67
2017-12-25T17:45:49.019Z,98784.97
2017-12-25T17:48:18.837Z,98781.63
2017-12-25T17:50:48.663Z,98776.45
2017-12-25T17:53:18.901Z,98776.47
2017-12-25T17:55:48.509Z,98778.05
2017-12-25T17:58:18.398Z,98770.16
2017-12-25T18:00:48.211Z,98764.16
2017-12-25T18:03:18.020Z,98769.31
2017-12-25T18:05:47.830Z,98763.66
2017-12-25T18:08:17.642Z,98763.17
2017-12-25T18:10:47.467Z,98757.56
2017-12-25T18:13:17.243Z,98754.20
2017-12-25T18:15:47.072Z,98753.78
2017-12-25T18:18:16.899Z,98753.80
2017-12-25T18:20:46.688Z,98751.95
2017-12-25T18:23:16.553Z,98762.11
2017-12-25T18:25:46.349Z,98763.98
2017-12-25T18:28:16.156Z,98755.57
2017-12-25T18:30:45.985Z,98756.19
2017-12-25T18:33:15.774Z,98748.35
2017-12-25T18:35:45.596Z,98745.19
2017-12-25T18:38:15.388Z,98745.05
2017-12-25T18:40:45.192Z,98746.21
2017-12-25T18:43:14.956Z,98741.30
2017-12-25T18:45:44.763Z,98738.34
2017-12-25T18:48:14.548Z,98738.00
2017-12-25T18:50:44.381Z,98727.83
2017-12-25T18:53:14.211Z,98735.92
2017-12-25T18:55:44.027Z,98730.84
2017-12-25T18:58:13.832Z,98724.98
2017-12-25T19:00:43.632Z,98726.11
2017-12-25T19:03:13.558Z,98722.98
2017-12-25T19:05:43.398Z,98719.52
2017-12-25T19:08:13.311Z,98714.84
2017-12-25T19:10:43.153Z,98711.77
2017-12-25T19:13:13.039Z,98703.91
2017-12-25T19:15:43.012Z,98702.69
2017-12-25T19:18:12.800Z,98701.22
2017-12-25T19:20:43.112Z,98692.48
2017-12-25T19:23:12.939Z,98695.28
2017-12-25T19:25:42.771Z,98692.08
2017-12-25T19:28:12.590Z,98688.00
2017-12-25T19:30:42.419Z,98681.02
2017-12-25T19:33:12.366Z,98676.61
2017-12-25T19:35:42.177Z,98676.77
2017-12-25T19:38:12.002Z,98670.56
2017-12-25T19:40:41.822Z,98663.96
2017-12-25T19:43:12.220Z,98660.73
2017-12-25T19:45:42.979Z,98657.13
2017-12-25T19:48:12.808Z,98657.02
2017-12-25T19:50:42.646Z,98654.40
2017-12-25T19:53:12.595Z,98647.94
2017-12-25T19:55:43.036Z,98645.16
2017-12-25T19:58:12.858Z,98649.05
2017-12-25T20:00:42.769Z,98647.52
2017-12-25T20:03:12.585Z,98640.59
2017-12-25T20:05:42.390Z,98637.61
2017-12-25T20:08:12.262Z,98639.32
2017-12-25T20:10:42.094Z,98632.45
2017-12-25T20:13:12.092Z,98638.75
2017-12-25T20:15:42.708Z,98636.09
2017-12-25T20:18:12.543Z,98639.66
2017-12-25T20:20:42.371Z,98636.17
2017-12-25T20:23:12.319Z,98632.81
2017-12-25T20:25:42.144Z,98617.89
2017-12-25T20:28:12.007Z,98614.84
2017-12-25T20:30:42.300Z,98603.58
2017-12-25T20:33:12.323Z,98609.24
2017-12-25T20:35:42.155Z,98608.22
2017-12-25T20:38:11.994Z,98604.14
2017-12-25T20:40:41.815Z,98605.56
2017-12-25T20:43:11.700Z,98600.02
2017-12-25T20:45:41.742Z,98601.36
2017-12-25T20:48:11.559Z,98603.22
2017-12-25T20:50:41.371Z,98600.17
2017-12-25T20:53:12.237Z,98597.34
2017-12-25T20:55:42.124Z,98586.18
2017-12-25T20:58:11.926Z,98590.66
2017-12-25T21:00:41.780Z,98579.69
2017-12-25T21:03:11.620Z,98585.14
2017-12-25T21:05:41.480Z,98577.16
2017-12-25T21:08:11.295Z,98576.13
2017-12-25T21:10:41.118Z,98576.69
2017-12-25T21:13:10.966Z,98569.21
2017-12-25T21:15:40.853Z,98572.38
2017-12-25T21:18:10.662Z,98569.82
2017-12-25T21:20:40.536Z,98561.77
2017-12-25T21:23:10.374Z,98555.13
2017-12-25T21:25:40.514Z,98555.52
2017-12-25T21:28:10.357Z,98554.86
2017-12-25T21:30:40.180Z,98546.13
2017-12-25T21:33:09.977Z,98547.20
2017-12-25T21:35:39.828Z,98544.45
2017-12-25T21:38:09.678Z,98542.81
2017-12-25T21:40:39.489Z,98536.75
2017-12-25T21:43:09.342Z,98544.61
2017-12-25T21:45:39.213Z,98539.38
2017-12-25T21:48:09.029Z,98539.88
2017-12-25T21:50:38.852Z,98538.46
2017-12-25T21:53:08.704Z,98533.36
2017-12-25T21:55:38.542Z,98532.66
2017-12-25T21:58:08.401Z,98529.08
2017-12-25T22:00:38.230Z,98526.33
2017-12-25T22:03:08.056Z,98515.31
2017-12-25T22:05:37.899Z,98506.32
2017-12-25T22:08:07.744Z,98502.80
2017-12-25T22:10:37.570Z,98507.94
2017-12-25T22:13:07.400Z,98506.19
2017-12-25T22:15:37.297Z,98503.41
2017-12-25T22:18:07.137Z,98503.69
2017-12-25T22:20:36.963Z,98496.11
2017-12-25T22:23:06.806Z,98499.23
2017-12-25T22:25:36.621Z,98491.16
2017-12-25T22:28:06.444Z,98496.50
2017-12-25T22:30:36.633Z,98499.23
2017-12-25T22:33:06.454Z,98500.25
2017-12-25T22:35:36.777Z,98502.20
2017-12-25T22:38:06.666Z,98499.27
2017-12-25T22:40:36.631Z,98497.94
2017-12-25T22:43:06.454Z,98498.08
2017-12-25T22:45:36.312Z,98492.53
2017-12-25T22:48:06.139Z,98495.12
2017-12-25T22:50:35.968Z,98489.61
2017-12-25T22:53:05.835Z,98484.02
2017-12-25T22:55:35.651Z,98481.84
2017-12-25T22:58:06.338Z,98476.44
2017-12-25T23:00:36.205Z,98476.77
2017-12-25T23:03:05.780Z,98469.98
2017-12-25T23:05:35.664Z,98464.52
2017-12-25T23:08:05.523Z,98458.11
2017-12-25T23:10:35.087Z,98456.16
2017-12-25T23:13:04.898Z,98455.63
2017-12-25T23:15:34.733Z,98461.53
2017-12-25T23:18:04.599Z,98455.30
2017-12-25T23:20:38.189Z,98460.16
2017-12-25T23:23:08.030Z,98450.05
2017-12-25T23:25:37.840Z,98439.53
2017-12-25T23:28:07.646Z,98445.13
2017-12-25T23:30:37.480Z,98443.10
2017-12-25T23:33:07.355Z,98430.53
2017-12-25T23:35:37.169Z,98431.94
2017-12-25T23:38:07.022Z,98432.22
2017-12-25T23:40:36.862Z,98425.75
2017-12-25T23:43:06.696Z,98427.80
2017-12-25T23:45:37.318Z,98428.86
2017-12-25T23:48:07.374Z,98429.48
2017-12-25T23:50:37.203Z,98424.50
2017-12-25T23:53:07.046Z,98412.38
2017-12-25T23:55:36.848Z,98412.34
2017-12-25T23:58:06.676Z,98415.72
